Time;durP1;ratioP1;P1;durP2;ratioP2;P2;SDS_P1;SDS_P2;PMS_P1;PMS_P2;Temp;Humidity;BMP_temperature;BMP_pressure;BME280_temperature;BME280_humidity;BME280_pressure;Samples;Min_cycle;Max_cycle;Signal;HPM_P1;HPM_P2
2023/06/18 00:02:16;;;;;;;1999.90;999.90;;;16.50;99.90;;;;;;5085079;28;20990;-77
2023/06/18 00:04:42;;;;;;;1999.90;999.90;;;16.50;99.90;;;;;;5081293;28;20463;-77
2023/06/18 00:07:09;;;;;;;1999.90;999.90;;;16.60;99.90;;;;;;5090266;28;20479;-77
2023/06/18 00:09:35;;;;;;;1999.90;999.90;;;16.40;99.90;;;;;;5089472;28;20413;-77
2023/06/18 00:12:02;;;;;;;1999.90;999.90;;;16.30;99.90;;;;;;5086964;28;20417;-77
2023/06/18 00:14:29;;;;;;;1999.90;999.90;;;16.40;99.90;;;;;;5081654;28;20470;-77
2023/06/18 00:16:57;;;;;;;1999.90;999.90;;;16.50;99.90;;;;;;5090238;28;20440;-77
2023/06/18 00:19:24;;;;;;;1999.90;999.90;;;16.50;99.90;;;;;;5090256;28;20414;-77
2023/06/18 00:21:51;;;;;;;1999.90;999.90;;;16.30;99.90;;;;;;5088234;28;20420;-77
2023/06/18 00:24:18;;;;;;;1999.90;999.90;;;16.00;99.90;;;;;;5084157;28;20452;-77
2023/06/18 00:26:44;;;;;;;1999.90;999.90;;;16.10;99.90;;;;;;5093319;28;20475;-77
2023/06/18 00:29:11;;;;;;;1999.90;999.90;;;16.10;99.90;;;;;;5093641;28;20404;-77
2023/06/18 00:31:38;;;;;;;1999.90;999.90;;;15.70;99.90;;;;;;5092951;28;20413;-77
2023/06/18 00:34:06;;;;;;;1999.90;999.90;;;15.80;99.90;;;;;;5079201;28;20432;-77
2023/06/18 00:36:33;;;;;;;1999.90;999.90;;;15.70;99.90;;;;;;5085179;28;20463;-77
2023/06/18 00:39:02;;;;;;;1999.90;999.90;;;15.80;99.90;;;;;;5093183;28;20463;-77
2023/06/18 00:41:30;;;;;;;1999.90;999.90;;;15.90;99.90;;;;;;5075696;28;20437;-77
2023/06/18 00:43:57;;;;;;;1999.90;999.90;;;15.80;99.90;;;;;;5081335;28;20423;-77
2023/06/18 00:46:25;;;;;;;1999.90;999.90;;;15.70;99.90;;;;;;5093003;28;20425;-77
2023/06/18 00:48:52;;;;;;;1999.90;999.90;;;15.50;99.90;;;;;;5092874;28;20892;-77
2023/06/18 00:51:22;;;;;;;1999.90;999.90;;;15.40;99.90;;;;;;5082540;28;20426;-77
2023/06/18 00:53:49;;;;;;;1999.90;999.90;;;15.50;99.90;;;;;;5084605;28;20499;-77
2023/06/18 00:56:17;;;;;;;1999.90;999.90;;;15.40;99.90;;;;;;5093146;28;20406;-77
2023/06/18 00:58:47;;;;;;;1999.90;999.90;;;14.90;99.90;;;;;;5092860;28;20977;-77
2023/06/18 01:01:14;;;;;;;1999.90;999.90;;;14.90;99.90;;;;;;5085870;28;21002;-77
2023/06/18 01:03:41;;;;;;;1999.90;999.90;;;15.00;99.90;;;;;;5087419;28;20418;-78
2023/06/18 01:06:12;;;;;;;1999.90;999.90;;;15.00;99.90;;;;;;5092932;28;20432;-77
2023/06/18 01:08:43;;;;;;;1999.90;999.90;;;15.00;99.90;;;;;;5092731;28;20487;-77
2023/06/18 01:11:10;;;;;;;1999.90;999.90;;;15.10;99.90;;;;;;5085018;28;20433;-77
2023/06/18 01:13:41;;;;;;;1999.90;999.90;;;15.10;99.90;;;;;;5086475;28;20421;-77
2023/06/18 01:16:09;;;;;;;1999.90;999.90;;;15.00;99.90;;;;;;5092635;28;20414;-77
2023/06/18 01:18:41;;;;;;;1999.90;999.90;;;15.20;99.90;;;;;;5092367;28;20517;-76
2023/06/18 01:21:10;;;;;;;1999.90;999.90;;;14.50;99.90;;;;;;5086562;28;20437;-77
2023/06/18 01:23:49;;;;;;;1999.90;999.90;;;14.30;99.90;;;;;;5085997;28;20479;-75
2023/06/18 01:26:20;;;;;;;1999.90;999.90;;;14.20;99.90;;;;;;5075142;28;20794;-77
2023/06/18 01:28:48;;;;;;;1999.90;999.90;;;14.20;99.90;;;;;;5083661;28;20418;-77
2023/06/18 01:31:16;;;;;;;1999.90;999.90;;;14.20;99.90;;;;;;5084926;28;20426;-77
2023/06/18 01:33:42;;;;;;;1999.90;999.90;;;14.10;99.90;;;;;;5085508;28;20426;-76
2023/06/18 01:36:12;;;;;;;1999.90;999.90;;;14.00;99.90;;;;;;5092132;28;20463;-75
2023/06/18 01:38:48;;;;;;;1999.90;999.90;;;14.00;99.90;;;;;;5092472;28;20467;-76
2023/06/18 01:41:20;;;;;;;1999.90;999.90;;;13.80;99.90;;;;;;5084930;28;20430;-76
2023/06/18 01:43:53;;;;;;;1999.90;999.90;;;13.80;99.90;;;;;;5086862;28;20409;-76
2023/06/18 01:46:22;;;;;;;1999.90;999.90;;;13.80;99.90;;;;;;5091742;28;20915;-76
2023/06/18 01:48:56;;;;;;;1999.90;999.90;;;13.90;99.90;;;;;;5092035;28;20564;-75
2023/06/18 01:51:25;;;;;;;1999.90;999.90;;;14.00;99.90;;;;;;5078204;28;20433;-76
2023/06/18 01:53:55;;;;;;;1999.90;999.90;;;14.10;99.90;;;;;;5083127;28;20786;-76
2023/06/18 01:56:23;;;;;;;1999.90;999.90;;;13.90;99.90;;;;;;5091403;28;20992;-76
2023/06/18 01:58:50;;;;;;;1999.90;999.90;;;13.90;99.90;;;;;;5091686;28;20460;-76
2023/06/18 02:01:20;;;;;;;1999.90;999.90;;;13.80;99.90;;;;;;5079634;28;20465;-76
2023/06/18 02:03:46;;;;;;;1999.90;999.90;;;13.80;99.90;;;;;;5082358;28;20926;-76
2023/06/18 02:06:13;;;;;;;1999.90;999.90;;;13.80;99.90;;;;;;5091516;28;20433;-76
2023/06/18 02:08:40;;;;;;;1999.90;999.90;;;14.00;99.90;;;;;;5091250;28;20448;-76
2023/06/18 02:11:10;;;;;;;1999.90;999.90;;;14.10;99.90;;;;;;5078968;28;20485;-77
2023/06/18 02:13:36;;;;;;;1999.90;999.90;;;14.40;99.90;;;;;;5083331;28;20416;-77
2023/06/18 02:16:03;;;;;;;1999.90;999.90;;;14.50;99.90;;;;;;5091977;28;20406;-76
2023/06/18 02:18:30;;;;;;;1999.90;999.90;;;14.60;99.90;;;;;;5091639;28;20459;-77
2023/06/18 02:20:56;;;;;;;1999.90;999.90;;;14.60;99.90;;;;;;5081110;28;20515;-77
2023/06/18 02:23:23;;;;;;;1999.90;999.90;;;14.50;99.90;;;;;;5071247;28;20423;-77
2023/06/18 02:25:50;;;;;;;1999.90;999.90;;;14.40;99.90;;;;;;5070967;28;20407;-76
2023/06/18 02:28:18;;;;;;;1999.90;999.90;;;14.50;99.90;;;;;;5071404;28;20416;-77
2023/06/18 02:30:45;;;;;;;1999.90;999.90;;;14.60;99.90;;;;;;5070185;28;20485;-77
2023/06/18 02:33:12;;;;;;;1999.90;999.90;;;14.60;99.90;;;;;;5080811;28;20416;-76
2023/06/18 02:35:39;;;;;;;1999.90;999.90;;;14.50;99.90;;;;;;5090799;28;20471;-77
2023/06/18 02:38:06;;;;;;;1999.90;999.90;;;14.40;99.90;;;;;;5090909;28;20440;-77
2023/06/18 02:40:32;;;;;;;1999.90;999.90;;;14.40;99.90;;;;;;5084247;28;20436;-76
2023/06/18 02:42:59;;;;;;;1999.90;999.90;;;14.40;99.90;;;;;;5078906;28;20415;-77
2023/06/18 02:45:27;;;;;;;1999.90;999.90;;;14.30;99.90;;;;;;5090409;28;20413;-76
2023/06/18 02:47:54;;;;;;;1999.90;999.90;;;14.10;99.90;;;;;;5097152;28;20421;-76
2023/06/18 02:50:21;;;;;;;1999.90;999.90;;;13.90;99.90;;;;;;5101296;28;20469;-76
2023/06/18 02:52:48;;;;;;;1999.90;999.90;;;13.90;99.90;;;;;;5093615;28;20415;-77
2023/06/18 02:55:15;;;;;;;1999.90;999.90;;;14.00;99.90;;;;;;5099124;28;20475;-77
2023/06/18 02:57:42;;;;;;;1999.90;999.90;;;14.30;99.90;;;;;;5091636;28;20456;-76
2023/06/18 03:00:12;;;;;;;1999.90;999.90;;;14.40;99.90;;;;;;5087478;28;20418;-76
2023/06/18 03:02:41;;;;;;;1999.90;999.90;;;14.50;99.90;;;;;;5078880;28;20510;-76
2023/06/18 03:05:08;;;;;;;1999.90;999.90;;;14.60;99.90;;;;;;5088929;28;20929;-77
2023/06/18 03:07:35;;;;;;;1999.90;999.90;;;14.50;99.90;;;;;;5090800;28;20422;-76
2023/06/18 03:10:02;;;;;;;1999.90;999.90;;;14.50;99.90;;;;;;5089108;28;20418;-77
2023/06/18 03:12:28;;;;;;;1999.90;999.90;;;14.20;99.90;;;;;;5077781;28;20419;-76
2023/06/18 03:14:55;;;;;;;1999.90;999.90;;;14.00;99.90;;;;;;5087206;28;20420;-75
2023/06/18 03:17:22;;;;;;;1999.90;999.90;;;13.90;99.90;;;;;;5090740;28;20412;-76
2023/06/18 03:19:50;;;;;;;1999.90;999.90;;;13.90;99.90;;;;;;5090387;28;20475;-76
2023/06/18 03:22:17;;;;;;;1999.90;999.90;;;14.00;99.90;;;;;;5078296;28;20440;-75
2023/06/18 03:24:43;;;;;;;1999.90;999.90;;;13.90;99.90;;;;;;5085405;28;20409;-76
2023/06/18 03:27:10;;;;;;;1999.90;999.90;;;14.20;99.90;;;;;;5092909;28;20471;-77
2023/06/18 03:29:37;;;;;;;1999.90;999.90;;;14.20;99.90;;;;;;5091311;28;20414;-75
2023/06/18 03:32:04;;;;;;;1999.90;999.90;;;14.20;99.90;;;;;;5080083;28;20426;-76
2023/06/18 03:34:33;;;;;;;1999.90;999.90;;;14.30;99.90;;;;;;5083696;28;20422;-76
2023/06/18 03:37:02;;;;;;;1999.90;999.90;;;14.20;99.90;;;;;;5090882;28;20884;-76
2023/06/18 03:39:28;;;;;;;1999.90;999.90;;;14.30;99.90;;;;;;5090614;28;20426;-76
2023/06/18 03:41:55;;;;;;;1999.90;999.90;;;14.30;99.90;;;;;;5076836;28;20434;-76
2023/06/18 03:44:22;;;;;;;1999.90;999.90;;;14.40;99.90;;;;;;5073912;28;20414;-76
2023/06/18 03:46:49;;;;;;;1999.90;999.90;;;14.40;99.90;;;;;;5090714;28;20422;-76
2023/06/18 03:49:15;;;;;;;1999.90;999.90;;;14.30;99.90;;;;;;5091105;28;20846;-77
2023/06/18 03:51:42;;;;;;;1999.90;999.90;;;14.60;99.90;;;;;;5079629;28;20853;-76
2023/06/18 03:54:10;;;;;;;1999.90;999.90;;;14.80;99.90;;;;;;5089113;28;20410;-76
2023/06/18 03:56:37;;;;;;;1999.90;999.90;;;14.70;99.90;;;;;;5091310;28;20455;-76
2023/06/18 03:59:04;;;;;;;1999.90;999.90;;;14.90;99.90;;;;;;5095278;28;20406;-76
2023/06/18 04:01:30;;;;;;;1999.90;999.90;;;15.00;99.90;;;;;;5085616;28;20434;-77
2023/06/18 04:03:57;;;;;;;1999.90;999.90;;;15.10;99.90;;;;;;5091661;28;20443;-76
2023/06/18 04:06:24;;;;;;;1999.90;999.90;;;15.00;99.90;;;;;;5095331;28;20895;-78
2023/06/18 04:08:50;;;;;;;1999.90;999.90;;;15.00;99.90;;;;;;5093987;28;20428;-77
2023/06/18 04:11:18;;;;;;;1999.90;999.90;;;15.10;99.90;;;;;;5102155;22;20437;-72
2023/06/18 04:13:45;;;;;;;1999.90;999.90;;;15.20;99.90;;;;;;5089704;28;20413;-72
2023/06/18 04:16:12;;;;;;;1999.90;999.90;;;15.30;99.90;;;;;;5093703;28;20460;-72
2023/06/18 04:18:38;;;;;;;1999.90;999.90;;;15.50;99.90;;;;;;5093588;28;20826;-71
2023/06/18 04:21:07;;;;;;;1999.90;999.90;;;15.60;99.90;;;;;;5079713;28;22457;-71
2023/06/18 04:23:33;;;;;;;1999.90;999.90;;;15.90;99.90;;;;;;5084406;28;20410;-70
2023/06/18 04:26:00;;;;;;;1999.90;999.90;;;16.00;99.90;;;;;;5093435;28;20467;-72
2023/06/18 04:28:28;;;;;;;1999.90;999.90;;;16.10;99.90;;;;;;5092991;28;20472;-72
2023/06/18 04:30:54;;;;;;;1999.90;999.90;;;16.10;99.90;;;;;;5083284;28;20430;-71
2023/06/18 04:33:21;;;;;;;1999.90;999.90;;;16.70;99.90;;;;;;5084351;28;20931;-72
2023/06/18 04:35:48;;;;;;;1999.90;999.90;;;17.20;99.90;;;;;;5093317;28;20487;-71
2023/06/18 04:38:14;;;;;;;1999.90;999.90;;;17.30;99.90;;;;;;5092813;28;20410;-72
2023/06/18 04:40:41;;;;;;;1999.90;999.90;;;18.30;99.90;;;;;;5083974;28;20914;-70
2023/06/18 04:43:08;;;;;;;1999.90;999.90;;;18.70;99.90;;;;;;5081616;28;20984;-70
2023/06/18 04:45:36;;;;;;;1999.90;999.90;;;19.00;99.90;;;;;;5092924;28;20410;-72
2023/06/18 04:48:03;;;;;;;1999.90;999.90;;;19.20;99.90;;;;;;5092773;28;20453;-73
2023/06/18 04:50:30;;;;;;;1999.90;999.90;;;19.70;99.90;;;;;;5086199;28;20434;-72
2023/06/18 04:52:57;;;;;;;1999.90;999.90;;;19.80;99.90;;;;;;5074331;28;20428;-72
2023/06/18 04:55:24;;;;;;;1999.90;999.90;;;20.10;99.90;;;;;;5070556;28;20989;-72
2023/06/18 04:57:50;;;;;;;1999.90;999.90;;;20.20;99.90;;;;;;5083981;28;20414;-71
2023/06/18 05:00:19;;;;;;;1999.90;999.90;;;20.30;99.90;;;;;;5075829;28;20486;-72
2023/06/18 05:02:48;;;;;;;1999.90;999.90;;;20.70;99.90;;;;;;5075084;28;20420;-72
2023/06/18 05:05:15;;;;;;;1999.90;999.90;;;20.90;99.90;;;;;;5091015;28;20489;-72
2023/06/18 05:07:42;;;;;;;1999.90;999.90;;;21.00;99.90;;;;;;5092285;28;20426;-72
2023/06/18 05:10:09;;;;;;;1999.90;999.90;;;21.20;99.90;;;;;;5083747;28;20458;-72
2023/06/18 05:12:37;;;;;;;1999.90;999.90;;;20.80;99.90;;;;;;5083589;28;20457;-72
2023/06/18 05:15:05;;;;;;;1999.90;999.90;;;20.70;99.90;;;;;;5083903;28;20434;-72
2023/06/18 05:17:31;;;;;;;1999.90;999.90;;;20.60;99.90;;;;;;5073280;28;20505;-73
2023/06/18 05:20:03;;;;;;;1999.90;999.90;;;20.50;99.90;;;;;;5088379;28;20478;-72
2023/06/18 05:22:29;;;;;;;1999.90;999.90;;;20.80;99.90;;;;;;5091984;28;20872;-72
2023/06/18 05:24:59;;;;;;;1999.90;999.90;;;20.90;99.90;;;;;;5092399;28;20406;-71
2023/06/18 05:27:25;;;;;;;1999.90;999.90;;;20.90;99.90;;;;;;5080393;28;20423;-72
2023/06/18 05:29:54;;;;;;;1999.90;999.90;;;21.20;99.90;;;;;;5087027;28;20463;-72
2023/06/18 05:32:20;;;;;;;1999.90;999.90;;;21.80;99.90;;;;;;5080300;28;20427;-73
2023/06/18 05:34:47;;;;;;;1999.90;999.90;;;22.30;99.90;;;;;;5083182;28;20465;-74
2023/06/18 05:37:15;;;;;;;1999.90;999.90;;;22.90;99.90;;;;;;5091962;28;20414;-75
2023/06/18 05:39:42;;;;;;;1999.90;999.90;;;23.00;99.90;;;;;;5091710;28;20462;-74
2023/06/18 05:42:09;;;;;;;1999.90;999.90;;;23.50;99.90;;;;;;5073545;28;20441;-73
2023/06/18 05:44:35;;;;;;;1999.90;999.90;;;22.90;99.90;;;;;;5072731;28;20951;-74
2023/06/18 05:47:02;;;;;;;1999.90;999.90;;;23.10;99.90;;;;;;5088162;28;20439;-73
2023/06/18 05:49:29;;;;;;;1999.90;999.90;;;22.90;99.90;;;;;;5091238;28;20421;-74
2023/06/18 05:51:55;;;;;;;1999.90;999.90;;;22.90;99.90;;;;;;5078282;28;20439;-72
2023/06/18 05:54:25;;;;;;;1999.90;999.90;;;22.60;99.90;;;;;;5081968;28;20417;-72
2023/06/18 05:56:52;;;;;;;1999.90;999.90;;;22.30;99.90;;;;;;5091158;28;20843;-71
2023/06/18 05:59:19;;;;;;;1999.90;999.90;;;22.90;99.90;;;;;;5091576;28;20410;-71
2023/06/18 06:01:45;;;;;;;1999.90;999.90;;;22.80;99.90;;;;;;5085402;28;20439;-72
2023/06/18 06:04:12;;;;;;;1999.90;999.90;;;23.00;99.90;;;;;;5080280;28;20963;-72
2023/06/18 06:06:39;;;;;;;1999.90;999.90;;;23.00;99.90;;;;;;5084280;28;20483;-72
2023/06/18 06:09:05;;;;;;;1999.90;999.90;;;22.90;99.90;;;;;;5082962;28;20479;-75
2023/06/18 06:11:36;;;;;;;1999.90;999.90;;;23.10;99.90;;;;;;5076884;28;20463;-74
2023/06/18 06:14:03;;;;;;;1999.90;999.90;;;23.30;99.90;;;;;;5079541;28;20548;-74
2023/06/18 06:16:29;;;;;;;1999.90;999.90;;;23.40;99.90;;;;;;5071165;28;20465;-74
2023/06/18 06:18:56;;;;;;;1999.90;999.90;;;23.20;99.90;;;;;;5070693;28;20411;-72
2023/06/18 06:21:22;;;;;;;1999.90;999.90;;;23.40;99.90;;;;;;5067731;28;20435;-72
2023/06/18 06:23:50;;;;;;;1999.90;999.90;;;23.20;99.90;;;;;;5079270;28;20481;-70
2023/06/18 06:26:17;;;;;;;1999.90;999.90;;;23.40;99.90;;;;;;5089292;28;20425;-71
2023/06/18 06:28:44;;;;;;;1999.90;999.90;;;23.40;99.90;;;;;;5090577;28;20867;-74
2023/06/18 06:31:11;;;;;;;1999.90;999.90;;;23.70;99.90;;;;;;5084939;28;20484;-74
2023/06/18 06:33:38;;;;;;;1999.90;999.90;;;23.60;99.90;;;;;;5081066;28;20429;-73
2023/06/18 06:36:05;;;;;;;1999.90;999.90;;;23.90;99.90;;;;;;5078417;28;20905;-75
2023/06/18 06:38:31;;;;;;;1999.90;999.90;;;24.30;99.90;;;;;;5090875;28;20406;-75
2023/06/18 06:40:58;;;;;;;1999.90;999.90;;;24.30;99.90;;;;;;5090243;28;20490;-71
2023/06/18 06:43:24;;;;;;;1999.90;999.90;;;23.40;99.90;;;;;;5086618;28;20502;-72
2023/06/18 06:45:52;;;;;;;1999.90;999.90;;;23.70;99.90;;;;;;5082271;28;20414;-71
2023/06/18 06:48:19;;;;;;;1999.90;999.90;;;24.00;99.90;;;;;;5090823;28;20901;-73
2023/06/18 06:50:46;;;;;;;1999.90;999.90;;;23.90;99.90;;;;;;5079988;28;20425;-73
2023/06/18 06:53:13;;;;;;;1999.90;999.90;;;23.90;99.90;;;;;;5075714;28;20433;-74
2023/06/18 06:55:39;;;;;;;1999.90;999.90;;;24.10;99.90;;;;;;5082027;28;20884;-72
2023/06/18 06:58:06;;;;;;;1999.90;999.90;;;24.50;99.90;;;;;;5090725;28;20437;-71
2023/06/18 07:00:33;;;;;;;1999.90;999.90;;;24.40;99.90;;;;;;5086640;28;20888;-73
2023/06/18 07:03:01;;;;;;;1999.90;999.90;;;24.20;99.90;;;;;;5077527;28;20960;-74
2023/06/18 07:05:27;;;;;;;1999.90;999.90;;;24.50;99.90;;;;;;5090079;28;20410;-75
2023/06/18 07:07:54;;;;;;;1999.90;999.90;;;24.50;99.90;;;;;;5090191;28;20927;-73
2023/06/18 07:10:21;;;;;;;1999.90;999.90;;;24.70;99.90;;;;;;5088466;28;20421;-73
2023/06/18 07:12:47;;;;;;;1999.90;999.90;;;24.50;99.90;;;;;;5073822;28;20493;-73
2023/06/18 07:15:14;;;;;;;1999.90;999.90;;;24.60;99.90;;;;;;5087859;28;20414;-74
2023/06/18 07:17:41;;;;;;;1999.90;999.90;;;24.70;99.90;;;;;;5090345;28;20482;-74
2023/06/18 07:20:09;;;;;;;1999.90;999.90;;;24.50;99.90;;;;;;5089957;28;20406;-74
2023/06/18 07:22:36;;;;;;;1999.90;999.90;;;24.70;99.90;;;;;;5081162;28;20431;-74
2023/06/18 07:25:03;;;;;;;1999.90;999.90;;;25.10;99.90;;;;;;5077669;28;20951;-74
2023/06/18 07:27:29;;;;;;;1999.90;999.90;;;25.00;99.90;;;;;;5073268;28;20979;-74
2023/06/18 07:29:56;;;;;;;1999.90;999.90;;;25.30;99.90;;;;;;5084834;28;20475;-72
2023/06/18 07:32:23;;;;;;;1999.90;999.90;;;25.20;99.30;;;;;;5093132;28;20410;-72
2023/06/18 07:34:50;;;;;;;1999.90;999.90;;;25.20;99.60;;;;;;5094271;28;20425;-74
2023/06/18 07:37:17;;;;;;;1999.90;999.90;;;25.10;99.40;;;;;;5086001;28;20483;-74
2023/06/18 07:39:44;;;;;;;1999.90;999.90;;;25.10;99.40;;;;;;5086696;28;20418;-74
2023/06/18 07:42:11;;;;;;;1999.90;999.90;;;25.10;98.90;;;;;;5093983;28;20463;-74
2023/06/18 07:44:38;;;;;;;1999.90;999.90;;;25.20;98.40;;;;;;5094044;28;20425;-75
2023/06/18 07:47:05;;;;;;;1999.90;999.90;;;25.50;98.30;;;;;;5078727;28;20431;-74
2023/06/18 07:49:32;;;;;;;1999.90;999.90;;;25.90;96.60;;;;;;5082944;28;20476;-72
2023/06/18 07:51:59;;;;;;;1999.90;999.90;;;25.80;96.40;;;;;;5088728;28;20410;-74
2023/06/18 07:54:27;;;;;;;1999.90;999.90;;;25.80;95.90;;;;;;5093923;28;20412;-74
2023/06/18 07:56:53;;;;;;;1999.90;999.90;;;25.30;96.60;;;;;;5087362;28;20460;-74
2023/06/18 07:59:20;;;;;;;1999.90;999.90;;;25.50;96.30;;;;;;5085453;28;20830;-74
2023/06/18 08:01:47;;;;;;;1999.90;999.90;;;25.00;98.00;;;;;;5090839;28;20458;-74
2023/06/18 08:04:13;;;;;;;1999.90;999.90;;;25.10;98.20;;;;;;5085421;28;20413;-75
2023/06/18 08:06:40;;;;;;;1999.90;999.90;;;25.30;98.40;;;;;;5085201;28;20483;-73
2023/06/18 08:09:07;;;;;;;1999.90;999.90;;;25.60;97.70;;;;;;5083348;28;20429;-74
2023/06/18 08:11:35;;;;;;;1999.90;999.90;;;25.90;96.60;;;;;;5084108;28;20409;-75
2023/06/18 08:14:02;;;;;;;1999.90;999.90;;;26.20;94.10;;;;;;5093701;28;20452;-74
2023/06/18 08:16:29;;;;;;;1999.90;999.90;;;26.30;94.00;;;;;;5084063;28;20466;-74
2023/06/18 08:18:55;;;;;;;1999.90;999.90;;;25.70;94.50;;;;;;5081618;28;20828;-75
2023/06/18 08:21:22;;;;;;;1999.90;999.90;;;25.70;95.80;;;;;;5090675;28;20474;-74
2023/06/18 08:23:48;;;;;;;1999.90;999.90;;;25.80;95.40;;;;;;5092918;28;20409;-74
2023/06/18 08:26:16;;;;;;;1999.90;999.90;;;25.80;95.50;;;;;;5087758;28;20432;-74
2023/06/18 08:28:44;;;;;;;1999.90;999.90;;;26.00;95.30;;;;;;5084625;28;20938;-74
2023/06/18 08:31:10;;;;;;;1999.90;999.90;;;26.20;94.00;;;;;;5092521;28;20439;-74
2023/06/18 08:33:37;;;;;;;1999.90;999.90;;;25.90;94.90;;;;;;5093292;28;20414;-74
2023/06/18 08:36:04;;;;;;;1999.90;999.90;;;26.00;94.40;;;;;;5088708;28;20856;-74
2023/06/18 08:38:31;;;;;;;1999.90;999.90;;;26.30;93.70;;;;;;5084002;28;20498;-74
2023/06/18 08:41:01;;;;;;;1999.90;999.90;;;26.30;94.10;;;;;;5092639;28;20435;-74
2023/06/18 08:43:32;;;;;;;1999.90;999.90;;;26.30;94.00;;;;;;5092033;28;20441;-74
2023/06/18 08:46:03;;;;;;;1999.90;999.90;;;26.60;93.50;;;;;;5088961;28;20865;-74
2023/06/18 08:48:31;;;;;;;1999.90;999.90;;;26.90;93.30;;;;;;5083503;28;20420;-74
2023/06/18 08:51:03;;;;;;;1999.90;999.90;;;27.00;92.90;;;;;;5092028;28;20471;-73
2023/06/18 08:53:36;;;;;;;1999.90;999.90;;;26.50;93.20;;;;;;5082915;28;20437;-74
2023/06/18 08:56:04;;;;;;;1999.90;999.90;;;26.60;94.20;;;;;;5083777;28;20840;-74
2023/06/18 08:58:34;;;;;;;1999.90;999.90;;;26.70;93.50;;;;;;5083133;28;20820;-74
2023/06/18 09:01:03;;;;;;;1999.90;999.90;;;27.20;93.40;;;;;;5092157;28;20410;-74
2023/06/18 09:03:31;;;;;;;1999.90;999.90;;;27.20;92.40;;;;;;5092521;28;20410;-74
2023/06/18 09:05:58;;;;;;;1999.90;999.90;;;27.10;92.30;;;;;;5089464;28;20410;-74
2023/06/18 09:08:25;;;;;;;1999.90;999.90;;;26.40;94.00;;;;;;5079728;28;20421;-74
2023/06/18 09:10:55;;;;;;;1999.90;999.90;;;26.40;94.00;;;;;;5085444;28;20463;-70
2023/06/18 09:13:22;;;;;;;1999.90;999.90;;;26.30;93.80;;;;;;5092094;28;20402;-75
2023/06/18 09:15:48;;;;;;;1999.90;999.90;;;26.70;93.90;;;;;;5091789;28;20409;-73
2023/06/18 09:18:17;;;;;;;1999.90;999.90;;;26.80;93.00;;;;;;5080393;28;20419;-74
2023/06/18 09:20:43;;;;;;;1999.90;999.90;;;27.20;92.70;;;;;;5092009;28;20413;-74
2023/06/18 09:23:10;;;;;;;1999.90;999.90;;;27.20;93.20;;;;;;5091751;28;20410;-75
2023/06/18 09:25:37;;;;;;;1999.90;999.90;;;27.50;92.30;;;;;;5092243;28;20830;-74
2023/06/18 09:28:05;;;;;;;1999.90;999.90;;;27.40;92.20;;;;;;5080297;28;20910;-73
2023/06/18 09:30:31;;;;;;;1999.90;999.90;;;27.40;91.90;;;;;;5090296;28;20862;-75
2023/06/18 09:32:59;;;;;;;1999.90;999.90;;;27.50;92.60;;;;;;5091643;28;20410;-74
2023/06/18 09:35:27;;;;;;;1999.90;999.90;;;27.70;92.80;;;;;;5091696;28;20410;-75
2023/06/18 09:37:54;;;;;;;1999.90;999.90;;;27.90;90.40;;;;;;5081795;28;20435;-74
2023/06/18 09:40:22;;;;;;;1999.90;999.90;;;27.70;90.70;;;;;;5088609;28;20896;-74
2023/06/18 09:42:50;;;;;;;1999.90;999.90;;;27.30;91.60;;;;;;5091667;28;20413;-74
2023/06/18 09:45:17;;;;;;;1999.90;999.90;;;27.50;90.40;;;;;;5091753;28;20409;-74
2023/06/18 09:47:47;;;;;;;1999.90;999.90;;;27.50;89.70;;;;;;5083059;28;21242;-74
2023/06/18 09:50:14;;;;;;;1999.90;999.90;;;27.50;89.40;;;;;;5087511;28;20425;-73
2023/06/18 09:52:46;;;;;;;1999.90;999.90;;;27.40;87.60;;;;;;5091620;28;20461;-74
2023/06/18 09:55:30;;;;;;;1999.90;999.90;;;27.40;89.10;;;;;;5090555;28;20920;-73
2023/06/18 09:57:57;;;;;;;1999.90;999.90;;;27.30;89.30;;;;;;5081805;28;20789;-74
2023/06/18 10:00:25;;;;;;;1999.90;999.90;;;27.50;85.90;;;;;;5088368;28;20416;-75
2023/06/18 10:02:51;;;;;;;1999.90;999.90;;;27.60;84.90;;;;;;5091134;28;20946;-75
2023/06/18 10:05:18;;;;;;;1999.90;999.90;;;27.90;85.90;;;;;;5091568;28;20418;-75
2023/06/18 10:07:48;;;;;;;1999.90;999.90;;;27.90;87.10;;;;;;5082756;28;20908;-74
2023/06/18 10:10:16;;;;;;;1999.90;999.90;;;28.30;84.60;;;;;;5081971;28;20443;-74
2023/06/18 10:12:44;;;;;;;1999.90;999.90;;;28.40;84.90;;;;;;5093344;22;20769;-76
2023/06/18 10:15:25;;;;;;;1999.90;999.90;;;28.50;81.90;;;;;;5068184;27;1913620;-76
2023/06/18 10:17:56;;;;;;;1999.90;999.90;;;28.00;81.00;;;;;;5122076;27;20908;-76
2023/06/18 10:20:26;;;;;;;1999.90;999.90;;;28.10;79.10;;;;;;5127981;28;20419;-75
2023/06/18 10:22:58;;;;;;;1999.90;999.90;;;28.00;79.30;;;;;;5112941;28;20418;-76
2023/06/18 10:25:25;;;;;;;1999.90;999.90;;;27.80;76.30;;;;;;5108177;28;20756;-75
2023/06/18 10:27:53;;;;;;;1999.90;999.90;;;27.70;74.40;;;;;;5099190;28;20498;-76
2023/06/18 10:30:22;;;;;;;1999.90;999.90;;;27.90;76.60;;;;;;5107365;28;20991;-76
2023/06/18 10:32:50;;;;;;;1999.90;999.90;;;28.20;75.90;;;;;;5108372;28;20420;-77
2023/06/18 10:35:17;;;;;;;1999.90;999.90;;;28.30;75.00;;;;;;5108405;28;20425;-78
2023/06/18 10:37:45;;;;;;;1999.90;999.90;;;28.40;75.40;;;;;;5103467;28;20433;-76
2023/06/18 10:40:12;;;;;;;1999.90;999.90;;;28.20;73.20;;;;;;5102776;28;20470;-75
2023/06/18 10:42:40;;;;;;;1999.90;999.90;;;28.30;74.40;;;;;;5097832;28;20436;-76
2023/06/18 10:45:11;;;;;;;1999.90;999.90;;;28.60;74.10;;;;;;5108053;28;20417;-79
2023/06/18 10:47:39;;;;;;;1999.90;999.90;;;28.80;72.40;;;;;;5104690;28;20425;-77
2023/06/18 10:50:17;;;;;;;1999.90;999.90;;;28.30;75.00;;;;;;5101322;28;20479;-77
2023/06/18 10:52:46;;;;;;;1999.90;999.90;;;28.10;73.70;;;;;;5106870;28;20806;-77
2023/06/18 10:55:15;;;;;;;1999.90;999.90;;;27.90;75.00;;;;;;5107171;28;20478;-76
2023/06/18 10:57:44;;;;;;;1999.90;999.90;;;28.30;74.60;;;;;;5103073;28;20431;-76
2023/06/18 11:00:16;;;;;;;1999.90;999.90;;;28.50;71.30;;;;;;5102228;28;20899;-76
2023/06/18 11:02:44;;;;;;;1999.90;999.90;;;28.60;71.00;;;;;;5107515;28;20420;-76
2023/06/18 11:05:16;;;;;;;1999.90;999.90;;;28.60;67.80;;;;;;5107640;28;20418;-77
2023/06/18 11:07:43;;;;;;;1999.90;999.90;;;28.40;67.00;;;;;;5102843;28;20462;-76
2023/06/18 11:10:10;;;;;;;1999.90;999.90;;;28.50;67.00;;;;;;5101916;28;20952;-76
2023/06/18 11:12:39;;;;;;;1999.90;999.90;;;28.80;67.20;;;;;;5107040;28;20926;-77
2023/06/18 11:15:23;;;;;;;1999.90;999.90;;;29.10;68.20;;;;;;5107067;28;20433;-77
2023/06/18 11:17:53;;;;;;;1999.90;999.90;;;29.20;66.00;;;;;;5110000;28;20807;-77
2023/06/18 11:20:21;;;;;;;1999.90;999.90;;;29.00;68.60;;;;;;5106377;28;21389;-77
2023/06/18 11:22:48;;;;;;;1999.90;999.90;;;29.10;69.70;;;;;;5106362;28;20891;-77
2023/06/18 11:25:18;;;;;;;1999.90;999.90;;;28.60;68.20;;;;;;5101351;28;20413;-77
2023/06/18 11:27:46;;;;;;;1999.90;999.90;;;28.40;70.70;;;;;;5083716;28;20434;-76
2023/06/18 11:30:15;;;;;;;1999.90;999.90;;;28.60;70.00;;;;;;5093116;28;20577;-75
2023/06/18 11:32:42;;;;;;;1999.90;999.90;;;29.10;67.80;;;;;;5092754;28;20508;-74
2023/06/18 11:35:12;;;;;;;1999.90;999.90;;;29.40;67.40;;;;;;5092892;28;20826;-75
2023/06/18 11:37:40;;;;;;;1999.90;999.90;;;29.70;66.50;;;;;;5084080;28;20986;-75
2023/06/18 11:40:08;;;;;;;1999.90;999.90;;;29.90;64.60;;;;;;5093421;28;20414;-75
2023/06/18 11:42:37;;;;;;;1999.90;999.90;;;29.90;64.10;;;;;;5093133;28;20413;-74
2023/06/18 11:45:05;;;;;;;1999.90;999.90;;;29.70;68.00;;;;;;5092991;28;20938;-75
2023/06/18 11:47:34;;;;;;;1999.90;999.90;;;29.90;69.60;;;;;;5093209;28;20414;-74
2023/06/18 11:50:01;;;;;;;1999.90;999.90;;;29.90;67.40;;;;;;5080189;28;20505;-75
2023/06/18 11:52:30;;;;;;;1999.90;999.90;;;29.90;70.30;;;;;;5084304;28;20840;-75
2023/06/18 11:55:04;;;;;;;1999.90;999.90;;;29.90;69.60;;;;;;5083203;28;20485;-76
2023/06/18 11:57:31;;;;;;;1999.90;999.90;;;30.10;65.20;;;;;;5092362;28;20414;-75
2023/06/18 11:59:59;;;;;;;1999.90;999.90;;;29.90;66.30;;;;;;5091434;28;20479;-76
2023/06/18 12:02:26;;;;;;;1999.90;999.90;;;29.90;67.10;;;;;;5084067;28;20426;-77